sensor_id;sensor_type;location;lat;lon;timestamp;temperature;humidity
5960;DHT22;3006;50.956;7.002;2024-01-15T00:02:36;0.80;98.70
5960;DHT22;3006;50.956;7.002;2024-01-15T00:05:04;0.60;99.90
5960;DHT22;3006;50.956;7.002;2024-01-15T00:07:33;0.80;99.90
5960;DHT22;3006;50.956;7.002;2024-01-15T00:10:05;0.70;99.90
5960;DHT22;3006;50.956;7.002;2024-01-15T00:12:33;0.70;99.90
5960;DHT22;3006;50.956;7.002;2024-01-15T00:15:07;0.80;99.90
5960;DHT22;3006;50.956;7.002;2024-01-15T00:17:35;0.60;99.90
5960;DHT22;3006;50.956;7.002;2024-01-15T00:20:04;0.60;99.90
5960;DHT22;3006;50.956;7.002;2024-01-15T00:22:33;0.60;99.90
5960;DHT22;3006;50.956;7.002;2024-01-15T00:25:04;0.60;99.90
5960;DHT22;3006;50.956;7.002;2024-01-15T00:27:32;0.60;99.90
5960;DHT22;3006;50.956;7.002;2024-01-15T00:30:01;0.70;99.90
5960;DHT22;3006;50.956;7.002;2024-01-15T00:32:29;0.70;99.90
5960;DHT22;3006;50.956;7.002;2024-01-15T00:34:58;0.70;99.90
5960;DHT22;3006;50.956;7.002;2024-01-15T00:37:26;0.60;99.90
5960;DHT22;3006;50.956;7.002;2024-01-15T00:39:54;0.60;99.90
5960;DHT22;3006;50.956;7.002;2024-01-15T00:42:24;0.60;99.90
5960;DHT22;3006;50.956;7.002;2024-01-15T00:44:52;0.50;99.90
5960;DHT22;3006;50.956;7.002;2024-01-15T00:47:23;0.50;99.90
5960;DHT22;3006;50.956;7.002;2024-01-15T00:49:51;0.60;99.90
5960;DHT22;3006;50.956;7.002;2024-01-15T00:52:19;0.50;99.90
5960;DHT22;3006;50.956;7.002;2024-01-15T00:54:47;0.50;99.90
5960;DHT22;3006;50.956;7.002;2024-01-15T00:57:16;0.60;99.90
5960;DHT22;3006;50.956;7.002;2024-01-15T00:59:47;0.50;99.90
5960;DHT22;3006;50.956;7.002;2024-01-15T01:02:16;0.60;99.90
5960;DHT22;3006;50.956;7.002;2024-01-15T01:04:44;0.60;99.90
5960;DHT22;3006;50.956;7.002;2024-01-15T01:07:12;0.60;99.90
5960;DHT22;3006;50.956;7.002;2024-01-15T01:09:40;0.60;99.90
5960;DHT22;3006;50.956;7.002;2024-01-15T01:12:08;0.60;99.90
5960;DHT22;3006;50.956;7.002;2024-01-15T01:14:37;0.60;99.90
5960;DHT22;3006;50.956;7.002;2024-01-15T01:17:06;0.50;99.90
5960;DHT22;3006;50.956;7.002;2024-01-15T01:19:34;0.50;99.90
5960;DHT22;3006;50.956;7.002;2024-01-15T01:22:03;0.60;99.90
5960;DHT22;3006;50.956;7.002;2024-01-15T01:24:31;0.60;99.90
5960;DHT22;3006;50.956;7.002;2024-01-15T01:27:00;0.60;99.90
5960;DHT22;3006;50.956;7.002;2024-01-15T01:29:28;0.60;99.90
5960;DHT22;3006;50.956;7.002;2024-01-15T01:31:56;0.60;99.90
5960;DHT22;3006;50.956;7.002;2024-01-15T01:34:29;0.60;99.90
5960;DHT22;3006;50.956;7.002;2024-01-15T01:37:14;0.60;99.90
5960;DHT22;3006;50.956;7.002;2024-01-15T01:39:47;0.60;99.90
5960;DHT22;3006;50.956;7.002;2024-01-15T01:42:20;0.60;99.90
5960;DHT22;3006;50.956;7.002;2024-01-15T01:45:00;0.60;99.90
5960;DHT22;3006;50.956;7.002;2024-01-15T01:47:33;0.60;99.90
5960;DHT22;3006;50.956;7.002;2024-01-15T01:50:04;0.60;99.90
5960;DHT22;3006;50.956;7.002;2024-01-15T01:52:35;0.60;99.90
5960;DHT22;3006;50.956;7.002;2024-01-15T01:55:07;0.60;99.90
5960;DHT22;3006;50.956;7.002;2024-01-15T01:57:37;0.60;99.90
5960;DHT22;3006;50.956;7.002;2024-01-15T02:00:06;0.60;99.90
5960;DHT22;3006;50.956;7.002;2024-01-15T02:02:38;0.70;99.90
5960;DHT22;3006;50.956;7.002;2024-01-15T02:05:08;0.80;99.90
5960;DHT22;3006;50.956;7.002;2024-01-15T02:07:37;0.70;99.90
5960;DHT22;3006;50.956;7.002;2024-01-15T02:10:06;0.60;99.90
5960;DHT22;3006;50.956;7.002;2024-01-15T02:12:36;0.60;99.90
5960;DHT22;3006;50.956;7.002;2024-01-15T02:15:05;0.80;99.90
5960;DHT22;3006;50.956;7.002;2024-01-15T02:17:34;0.80;99.90
5960;DHT22;3006;50.956;7.002;2024-01-15T02:20:08;0.80;99.90
5960;DHT22;3006;50.956;7.002;2024-01-15T02:22:37;0.80;99.90
5960;DHT22;3006;50.956;7.002;2024-01-15T02:25:07;0.80;99.90
5960;DHT22;3006;50.956;7.002;2024-01-15T02:27:35;0.80;99.90
5960;DHT22;3006;50.956;7.002;2024-01-15T02:30:05;0.80;99.90
5960;DHT22;3006;50.956;7.002;2024-01-15T02:32:34;0.80;99.90
5960;DHT22;3006;50.956;7.002;2024-01-15T02:35:03;0.80;99.90
5960;DHT22;3006;50.956;7.002;2024-01-15T02:37:32;0.80;99.90
5960;DHT22;3006;50.956;7.002;2024-01-15T02:40:08;0.80;99.90
5960;DHT22;3006;50.956;7.002;2024-01-15T02:42:37;0.80;99.90
5960;DHT22;3006;50.956;7.002;2024-01-15T02:45:05;0.80;99.90
5960;DHT22;3006;50.956;7.002;2024-01-15T02:47:34;0.80;99.90
5960;DHT22;3006;50.956;7.002;2024-01-15T02:50:05;0.80;99.90
5960;DHT22;3006;50.956;7.002;2024-01-15T02:52:34;0.80;99.90
5960;DHT22;3006;50.956;7.002;2024-01-15T02:55:03;0.80;99.90
5960;DHT22;3006;50.956;7.002;2024-01-15T02:57:32;0.80;99.90
5960;DHT22;3006;50.956;7.002;2024-01-15T03:00:01;0.90;99.90
5960;DHT22;3006;50.956;7.002;2024-01-15T03:02:29;0.90;99.90
5960;DHT22;3006;50.956;7.002;2024-01-15T03:04:58;0.80;99.90
5960;DHT22;3006;50.956;7.002;2024-01-15T03:07:35;0.80;99.90
5960;DHT22;3006;50.956;7.002;2024-01-15T03:10:05;0.90;99.90
5960;DHT22;3006;50.956;7.002;2024-01-15T03:12:35;1.00;99.90
5960;DHT22;3006;50.956;7.002;2024-01-15T03:15:04;0.90;99.90
5960;DHT22;3006;50.956;7.002;2024-01-15T03:17:33;0.80;99.90
5960;DHT22;3006;50.956;7.002;2024-01-15T03:20:01;0.80;99.90
5960;DHT22;3006;50.956;7.002;2024-01-15T03:22:30;0.80;99.90
5960;DHT22;3006;50.956;7.002;2024-01-15T03:24:58;0.80;99.90
5960;DHT22;3006;50.956;7.002;2024-01-15T03:27:27;0.80;99.90
5960;DHT22;3006;50.956;7.002;2024-01-15T03:29:56;0.80;99.90
5960;DHT22;3006;50.956;7.002;2024-01-15T03:32:24;0.80;99.90
5960;DHT22;3006;50.956;7.002;2024-01-15T03:34:52;0.80;99.90
5960;DHT22;3006;50.956;7.002;2024-01-15T03:37:20;0.80;99.90
5960;DHT22;3006;50.956;7.002;2024-01-15T03:39:49;0.80;99.90
5960;DHT22;3006;50.956;7.002;2024-01-15T03:42:17;0.80;99.90
5960;DHT22;3006;50.956;7.002;2024-01-15T03:44:45;0.90;99.90
5960;DHT22;3006;50.956;7.002;2024-01-15T03:47:15;1.00;99.90
5960;DHT22;3006;50.956;7.002;2024-01-15T03:49:43;0.80;99.90
5960;DHT22;3006;50.956;7.002;2024-01-15T03:52:11;0.80;99.90
5960;DHT22;3006;50.956;7.002;2024-01-15T03:54:39;0.90;99.90
5960;DHT22;3006;50.956;7.002;2024-01-15T03:57:07;1.00;99.90
5960;DHT22;3006;50.956;7.002;2024-01-15T03:59:35;0.90;99.90
5960;DHT22;3006;50.956;7.002;2024-01-15T04:02:04;1.00;99.90
5960;DHT22;3006;50.956;7.002;2024-01-15T04:04:34;1.00;99.90
5960;DHT22;3006;50.956;7.002;2024-01-15T04:07:02;1.00;99.90
5960;DHT22;3006;50.956;7.002;2024-01-15T04:09:30;1.00;99.90
5960;DHT22;3006;50.956;7.002;2024-01-15T04:11:59;1.00;99.90
5960;DHT22;3006;50.956;7.002;2024-01-15T04:14:27;1.00;99.90
5960;DHT22;3006;50.956;7.002;2024-01-15T04:16:55;1.00;99.90
5960;DHT22;3006;50.956;7.002;2024-01-15T04:19:23;1.00;99.90
5960;DHT22;3006;50.956;7.002;2024-01-15T04:21:53;1.00;99.90
5960;DHT22;3006;50.956;7.002;2024-01-15T04:24:21;1.00;99.90
5960;DHT22;3006;50.956;7.002;2024-01-15T04:26:49;1.10;99.90
5960;DHT22;3006;50.956;7.002;2024-01-15T04:29:17;1.00;99.90
5960;DHT22;3006;50.956;7.002;2024-01-15T04:31:45;1.10;99.90
5960;DHT22;3006;50.956;7.002;2024-01-15T04:34:14;1.10;99.90
5960;DHT22;3006;50.956;7.002;2024-01-15T04:36:42;1.00;99.90
5960;DHT22;3006;50.956;7.002;2024-01-15T04:39:12;1.00;99.90
5960;DHT22;3006;50.956;7.002;2024-01-15T04:41:40;1.10;99.90
5960;DHT22;3006;50.956;7.002;2024-01-15T04:44:08;1.10;99.80
5960;DHT22;3006;50.956;7.002;2024-01-15T04:46:36;1.10;99.90
5960;DHT22;3006;50.956;7.002;2024-01-15T04:49:04;1.10;99.90
5960;DHT22;3006;50.956;7.002;2024-01-15T04:51:33;1.10;99.80
5960;DHT22;3006;50.956;7.002;2024-01-15T04:54:01;1.00;99.90
5960;DHT22;3006;50.956;7.002;2024-01-15T04:56:31;1.00;99.90
5960;DHT22;3006;50.956;7.002;2024-01-15T04:58:59;1.10;99.90
5960;DHT22;3006;50.956;7.002;2024-01-15T05:01:31;1.20;99.40
5960;DHT22;3006;50.956;7.002;2024-01-15T05:03:59;1.10;99.90
5960;DHT22;3006;50.956;7.002;2024-01-15T05:06:27;1.10;99.90
5960;DHT22;3006;50.956;7.002;2024-01-15T05:08:56;1.10;99.90
5960;DHT22;3006;50.956;7.002;2024-01-15T05:11:27;1.20;99.90
5960;DHT22;3006;50.956;7.002;2024-01-15T05:13:59;1.20;99.80
5960;DHT22;3006;50.956;7.002;2024-01-15T05:16:27;1.20;99.80
5960;DHT22;3006;50.956;7.002;2024-01-15T05:18:55;1.20;99.70
5960;DHT22;3006;50.956;7.002;2024-01-15T05:21:23;1.20;99.90
5960;DHT22;3006;50.956;7.002;2024-01-15T05:23:51;1.20;99.90
5960;DHT22;3006;50.956;7.002;2024-01-15T05:26:19;1.20;99.70
5960;DHT22;3006;50.956;7.002;2024-01-15T05:28:47;1.20;99.80
5960;DHT22;3006;50.956;7.002;2024-01-15T05:31:17;1.30;99.60
5960;DHT22;3006;50.956;7.002;2024-01-15T05:33:45;1.30;99.80
5960;DHT22;3006;50.956;7.002;2024-01-15T05:36:14;1.20;99.70
5960;DHT22;3006;50.956;7.002;2024-01-15T05:38:42;1.20;99.90
5960;DHT22;3006;50.956;7.002;2024-01-15T05:41:10;1.30;99.80
5960;DHT22;3006;50.956;7.002;2024-01-15T05:43:38;1.40;99.40
5960;DHT22;3006;50.956;7.002;2024-01-15T05:46:06;1.40;99.50
5960;DHT22;3006;50.956;7.002;2024-01-15T05:48:35;1.40;99.20
5960;DHT22;3006;50.956;7.002;2024-01-15T05:51:04;1.30;99.10
5960;DHT22;3006;50.956;7.002;2024-01-15T05:53:32;1.20;99.70
5960;DHT22;3006;50.956;7.002;2024-01-15T05:56:00;1.20;99.90
5960;DHT22;3006;50.956;7.002;2024-01-15T05:58:29;1.10;99.90
5960;DHT22;3006;50.956;7.002;2024-01-15T06:00:57;1.20;99.90
5960;DHT22;3006;50.956;7.002;2024-01-15T06:03:25;1.20;99.90
5960;DHT22;3006;50.956;7.002;2024-01-15T06:05:55;1.30;99.90
5960;DHT22;3006;50.956;7.002;2024-01-15T06:08:23;1.20;99.90
5960;DHT22;3006;50.956;7.002;2024-01-15T06:10:53;1.20;99.90
5960;DHT22;3006;50.956;7.002;2024-01-15T06:13:26;1.20;99.90
5960;DHT22;3006;50.956;7.002;2024-01-15T06:15:54;1.30;99.90
5960;DHT22;3006;50.956;7.002;2024-01-15T06:18:22;1.40;99.80
5960;DHT22;3006;50.956;7.002;2024-01-15T06:20:51;1.40;99.90
5960;DHT22;3006;50.956;7.002;2024-01-15T06:23:20;1.30;99.90
5960;DHT22;3006;50.956;7.002;2024-01-15T06:25:48;1.30;99.90
5960;DHT22;3006;50.956;7.002;2024-01-15T06:28:16;1.40;99.90
5960;DHT22;3006;50.956;7.002;2024-01-15T06:30:45;1.30;99.90
5960;DHT22;3006;50.956;7.002;2024-01-15T06:33:13;1.40;99.90
5960;DHT22;3006;50.956;7.002;2024-01-15T06:35:41;1.30;99.90
5960;DHT22;3006;50.956;7.002;2024-01-15T06:38:09;1.30;99.90
5960;DHT22;3006;50.956;7.002;2024-01-15T06:40:39;1.30;99.90
5960;DHT22;3006;50.956;7.002;2024-01-15T06:43:13;1.30;99.90
5960;DHT22;3006;50.956;7.002;2024-01-15T06:45:41;1.30;99.90
5960;DHT22;3006;50.956;7.002;2024-01-15T06:48:09;1.40;99.90
5960;DHT22;3006;50.956;7.002;2024-01-15T06:50:39;1.30;99.90
5960;DHT22;3006;50.956;7.002;2024-01-15T06:53:07;1.30;99.90
5960;DHT22;3006;50.956;7.002;2024-01-15T06:55:35;1.30;99.90
5960;DHT22;3006;50.956;7.002;2024-01-15T06:58:05;1.30;99.90
5960;DHT22;3006;50.956;7.002;2024-01-15T07:00:33;1.30;99.90
5960;DHT22;3006;50.956;7.002;2024-01-15T07:03:02;1.20;99.90
5960;DHT22;3006;50.956;7.002;2024-01-15T07:05:30;1.20;99.90
5960;DHT22;3006;50.956;7.002;2024-01-15T07:07:59;1.30;99.90
5960;DHT22;3006;50.956;7.002;2024-01-15T07:10:27;1.20;99.90
5960;DHT22;3006;50.956;7.002;2024-01-15T07:12:55;1.20;99.90
5960;DHT22;3006;50.956;7.002;2024-01-15T07:15:24;1.20;99.90
5960;DHT22;3006;50.956;7.002;2024-01-15T07:17:52;1.20;99.90
5960;DHT22;3006;50.956;7.002;2024-01-15T07:20:21;1.20;99.90
5960;DHT22;3006;50.956;7.002;2024-01-15T07:22:49;1.20;99.90
5960;DHT22;3006;50.956;7.002;2024-01-15T07:25:17;1.20;99.90
5960;DHT22;3006;50.956;7.002;2024-01-15T07:27:45;1.20;99.90
5960;DHT22;3006;50.956;7.002;2024-01-15T07:30:14;1.30;99.90
5960;DHT22;3006;50.956;7.002;2024-01-15T07:32:43;1.30;99.90
5960;DHT22;3006;50.956;7.002;2024-01-15T07:35:12;1.40;99.90
5960;DHT22;3006;50.956;7.002;2024-01-15T07:37:40;1.30;99.90
5960;DHT22;3006;50.956;7.002;2024-01-15T07:40:09;1.40;99.90
5960;DHT22;3006;50.956;7.002;2024-01-15T07:42:37;1.40;99.90
5960;DHT22;3006;50.956;7.002;2024-01-15T07:45:06;1.40;99.90
5960;DHT22;3006;50.956;7.002;2024-01-15T07:47:34;1.40;99.90
5960;DHT22;3006;50.956;7.002;2024-01-15T07:50:04;1.40;99.90
5960;DHT22;3006;50.956;7.002;2024-01-15T07:52:33;1.40;99.90
5960;DHT22;3006;50.956;7.002;2024-01-15T07:55:01;1.40;99.90
5960;DHT22;3006;50.956;7.002;2024-01-15T07:57:32;1.40;99.90
5960;DHT22;3006;50.956;7.002;2024-01-15T08:00:00;1.50;99.90
5960;DHT22;3006;50.956;7.002;2024-01-15T08:02:30;1.50;99.90
5960;DHT22;3006;50.956;7.002;2024-01-15T08:05:04;1.50;99.50
5960;DHT22;3006;50.956;7.002;2024-01-15T08:07:33;1.60;99.80
5960;DHT22;3006;50.956;7.002;2024-01-15T08:10:01;1.60;99.90
5960;DHT22;3006;50.956;7.002;2024-01-15T08:12:30;1.60;99.60
5960;DHT22;3006;50.956;7.002;2024-01-15T08:14:58;1.50;99.90
5960;DHT22;3006;50.956;7.002;2024-01-15T08:17:27;1.50;99.50
5960;DHT22;3006;50.956;7.002;2024-01-15T08:19:56;1.50;98.90
5960;DHT22;3006;50.956;7.002;2024-01-15T08:22:25;1.60;99.00
5960;DHT22;3006;50.956;7.002;2024-01-15T08:24:57;1.60;99.00
5960;DHT22;3006;50.956;7.002;2024-01-15T08:27:25;1.50;99.40
5960;DHT22;3006;50.956;7.002;2024-01-15T08:29:54;1.60;99.10
5960;DHT22;3006;50.956;7.002;2024-01-15T08:32:22;1.60;98.50
5960;DHT22;3006;50.956;7.002;2024-01-15T08:34:51;1.60;98.30
5960;DHT22;3006;50.956;7.002;2024-01-15T08:37:20;1.60;98.50
5960;DHT22;3006;50.956;7.002;2024-01-15T08:39:49;1.60;98.60
5960;DHT22;3006;50.956;7.002;2024-01-15T08:42:18;1.60;98.60
5960;DHT22;3006;50.956;7.002;2024-01-15T08:44:49;1.60;98.90
5960;DHT22;3006;50.956;7.002;2024-01-15T08:47:17;1.70;98.20
5960;DHT22;3006;50.956;7.002;2024-01-15T08:49:45;1.60;98.60
5960;DHT22;3006;50.956;7.002;2024-01-15T08:52:13;1.60;98.80
5960;DHT22;3006;50.956;7.002;2024-01-15T08:54:42;1.60;99.10
5960;DHT22;3006;50.956;7.002;2024-01-15T08:57:12;1.70;98.90
5960;DHT22;3006;50.956;7.002;2024-01-15T08:59:40;1.70;99.00
5960;DHT22;3006;50.956;7.002;2024-01-15T09:02:09;1.70;99.10
5960;DHT22;3006;50.956;7.002;2024-01-15T09:04:39;1.60;98.90
5960;DHT22;3006;50.956;7.002;2024-01-15T09:07:07;1.60;99.10
5960;DHT22;3006;50.956;7.002;2024-01-15T09:09:35;1.60;99.40
5960;DHT22;3006;50.956;7.002;2024-01-15T09:12:04;1.50;99.70
5960;DHT22;3006;50.956;7.002;2024-01-15T09:14:33;1.50;99.90
5960;DHT22;3006;50.956;7.002;2024-01-15T09:17:04;1.50;99.60
5960;DHT22;3006;50.956;7.002;2024-01-15T09:19:32;1.40;99.90
5960;DHT22;3006;50.956;7.002;2024-01-15T09:22:01;1.50;99.90
5960;DHT22;3006;50.956;7.002;2024-01-15T09:24:29;1.40;99.90
5960;DHT22;3006;50.956;7.002;2024-01-15T09:26:58;1.50;99.90
5960;DHT22;3006;50.956;7.002;2024-01-15T09:29:26;1.40;99.90
5960;DHT22;3006;50.956;7.002;2024-01-15T09:31:55;1.40;99.90
5960;DHT22;3006;50.956;7.002;2024-01-15T09:34:24;1.40;99.90
5960;DHT22;3006;50.956;7.002;2024-01-15T09:36:52;1.40;99.90
5960;DHT22;3006;50.956;7.002;2024-01-15T09:39:20;1.40;99.90
5960;DHT22;3006;50.956;7.002;2024-01-15T09:41:50;1.30;99.90
5960;DHT22;3006;50.956;7.002;2024-01-15T09:44:19;1.40;99.90
5960;DHT22;3006;50.956;7.002;2024-01-15T09:46:47;1.30;99.90
5960;DHT22;3006;50.956;7.002;2024-01-15T09:49:18;1.30;99.90
5960;DHT22;3006;50.956;7.002;2024-01-15T09:51:47;1.20;99.90
5960;DHT22;3006;50.956;7.002;2024-01-15T09:54:28;1.20;99.90
5960;DHT22;3006;50.956;7.002;2024-01-15T09:56:57;1.00;99.90
5960;DHT22;3006;50.956;7.002;2024-01-15T09:59:26;1.10;99.90
5960;DHT22;3006;50.956;7.002;2024-01-15T10:01:55;1.30;99.90
5960;DHT22;3006;50.956;7.002;2024-01-15T10:04:26;1.20;99.90
5960;DHT22;3006;50.956;7.002;2024-01-15T10:06:56;1.10;99.90
5960;DHT22;3006;50.956;7.002;2024-01-15T10:09:25;1.00;99.90
5960;DHT22;3006;50.956;7.002;2024-01-15T10:11:54;1.10;99.90
5960;DHT22;3006;50.956;7.002;2024-01-15T10:14:22;1.00;99.90
5960;DHT22;3006;50.956;7.002;2024-01-15T10:16:50;1.00;99.90
5960;DHT22;3006;50.956;7.002;2024-01-15T10:19:18;1.00;99.90
5960;DHT22;3006;50.956;7.002;2024-01-15T10:21:49;1.20;99.90
5960;DHT22;3006;50.956;7.002;2024-01-15T10:24:17;1.40;99.90
5960;DHT22;3006;50.956;7.002;2024-01-15T10:26:45;1.20;99.90
5960;DHT22;3006;50.956;7.002;2024-01-15T10:29:15;1.10;99.90
5960;DHT22;3006;50.956;7.002;2024-01-15T10:31:44;1.10;99.90
5960;DHT22;3006;50.956;7.002;2024-01-15T10:34:13;1.10;99.90
5960;DHT22;3006;50.956;7.002;2024-01-15T10:36:45;1.00;99.90
5960;DHT22;3006;50.956;7.002;2024-01-15T10:39:16;1.10;99.90
5960;DHT22;3006;50.956;7.002;2024-01-15T10:41:44;1.10;99.90
5960;DHT22;3006;50.956;7.002;2024-01-15T10:44:12;1.10;99.90
5960;DHT22;3006;50.956;7.002;2024-01-15T10:46:41;1.20;99.90
5960;DHT22;3006;50.956;7.002;2024-01-15T10:49:10;1.20;99.90
5960;DHT22;3006;50.956;7.002;2024-01-15T10:51:40;1.20;99.90
5960;DHT22;3006;50.956;7.002;2024-01-15T10:54:10;1.10;99.90
5960;DHT22;3006;50.956;7.002;2024-01-15T10:56:40;1.10;99.90
5960;DHT22;3006;50.956;7.002;2024-01-15T10:59:10;1.00;99.90
5960;DHT22;3006;50.956;7.002;2024-01-15T11:01:39;0.90;99.90
5960;DHT22;3006;50.956;7.002;2024-01-15T11:04:10;0.90;99.90
5960;DHT22;3006;50.956;7.002;2024-01-15T11:06:42;1.00;99.90
5960;DHT22;3006;50.956;7.002;2024-01-15T11:09:12;1.00;99.90
5960;DHT22;3006;50.956;7.002;2024-01-15T11:11:44;1.10;99.90
5960;DHT22;3006;50.956;7.002;2024-01-15T11:14:33;1.10;99.90
5960;DHT22;3006;50.956;7.002;2024-01-15T11:17:01;1.10;99.90
5960;DHT22;3006;50.956;7.002;2024-01-15T11:19:36;1.20;99.90
5960;DHT22;3006;50.956;7.002;2024-01-15T11:22:08;1.20;99.90
5960;DHT22;3006;50.956;7.002;2024-01-15T11:24:38;1.10;99.90
5960;DHT22;3006;50.956;7.002;2024-01-15T11:27:08;1.20;99.90
5960;DHT22;3006;50.956;7.002;2024-01-15T11:29:37;1.30;99.90
5960;DHT22;3006;50.956;7.002;2024-01-15T11:32:06;1.40;99.90
5960;DHT22;3006;50.956;7.002;2024-01-15T11:34:59;1.50;99.90
5960;DHT22;3006;50.956;7.002;2024-01-15T11:37:56;1.50;99.90
5960;DHT22;3006;50.956;7.002;2024-01-15T11:40:37;1.50;99.90
5960;DHT22;3006;50.956;7.002;2024-01-15T11:43:07;1.50;99.90
5960;DHT22;3006;50.956;7.002;2024-01-15T11:45:36;1.50;99.90
5960;DHT22;3006;50.956;7.002;2024-01-15T11:48:10;1.40;99.90
5960;DHT22;3006;50.956;7.002;2024-01-15T11:50:40;1.40;99.90
5960;DHT22;3006;50.956;7.002;2024-01-15T11:53:16;1.40;99.90
5960;DHT22;3006;50.956;7.002;2024-01-15T11:55:46;1.80;99.90
5960;DHT22;3006;50.956;7.002;2024-01-15T11:58:17;2.30;99.90
5960;DHT22;3006;50.956;7.002;2024-01-15T12:00:47;2.00;99.90
5960;DHT22;3006;50.956;7.002;2024-01-15T12:03:16;2.00;99.90
5960;DHT22;3006;50.956;7.002;2024-01-15T12:05:45;2.00;99.90
5960;DHT22;3006;50.956;7.002;2024-01-15T12:08:13;2.00;99.90
5960;DHT22;3006;50.956;7.002;2024-01-15T12:10:41;2.00;99.90
5960;DHT22;3006;50.956;7.002;2024-01-15T12:13:11;2.00;99.90
5960;DHT22;3006;50.956;7.002;2024-01-15T12:15:42;2.00;99.90
5960;DHT22;3006;50.956;7.002;2024-01-15T12:18:13;1.80;99.90
5960;DHT22;3006;50.956;7.002;2024-01-15T12:20:43;1.60;99.90
5960;DHT22;3006;50.956;7.002;2024-01-15T12:23:14;1.50;99.90
5960;DHT22;3006;50.956;7.002;2024-01-15T12:25:43;1.70;99.90
5960;DHT22;3006;50.956;7.002;2024-01-15T12:28:12;1.80;99.90
5960;DHT22;3006;50.956;7.002;2024-01-15T12:30:41;1.80;99.90
5960;DHT22;3006;50.956;7.002;2024-01-15T12:33:11;1.90;99.90
5960;DHT22;3006;50.956;7.002;2024-01-15T12:35:40;2.00;99.70
5960;DHT22;3006;50.956;7.002;2024-01-15T12:38:08;1.90;99.60
5960;DHT22;3006;50.956;7.002;2024-01-15T12:40:36;1.90;99.70
5960;DHT22;3006;50.956;7.002;2024-01-15T12:43:05;1.90;99.50
5960;DHT22;3006;50.956;7.002;2024-01-15T12:45:35;1.90;98.70
5960;DHT22;3006;50.956;7.002;2024-01-15T12:48:06;1.90;98.50
5960;DHT22;3006;50.956;7.002;2024-01-15T12:50:34;1.80;98.20
5960;DHT22;3006;50.956;7.002;2024-01-15T12:53:03;1.90;98.10
5960;DHT22;3006;50.956;7.002;2024-01-15T12:55:31;1.80;98.20
5960;DHT22;3006;50.956;7.002;2024-01-15T12:58:01;1.70;99.30
5960;DHT22;3006;50.956;7.002;2024-01-15T13:00:29;1.80;98.90
5960;DHT22;3006;50.956;7.002;2024-01-15T13:02:58;1.90;98.70
5960;DHT22;3006;50.956;7.002;2024-01-15T13:05:29;1.90;97.50
5960;DHT22;3006;50.956;7.002;2024-01-15T13:07:59;1.90;97.50
5960;DHT22;3006;50.956;7.002;2024-01-15T13:10:27;1.90;97.60
5960;DHT22;3006;50.956;7.002;2024-01-15T13:12:57;2.00;97.00
5960;DHT22;3006;50.956;7.002;2024-01-15T13:15:25;1.90;97.00
5960;DHT22;3006;50.956;7.002;2024-01-15T13:17:54;1.80;96.90
5960;DHT22;3006;50.956;7.002;2024-01-15T13:20:23;1.90;96.70
5960;DHT22;3006;50.956;7.002;2024-01-15T13:22:52;1.90;96.20
5960;DHT22;3006;50.956;7.002;2024-01-15T13:25:22;1.80;96.50
5960;DHT22;3006;50.956;7.002;2024-01-15T13:27:50;1.80;97.00
5960;DHT22;3006;50.956;7.002;2024-01-15T13:30:18;1.80;96.70
5960;DHT22;3006;50.956;7.002;2024-01-15T13:32:47;1.70;97.00
5960;DHT22;3006;50.956;7.002;2024-01-15T13:35:15;1.70;97.60
5960;DHT22;3006;50.956;7.002;2024-01-15T13:37:44;1.80;97.40
5960;DHT22;3006;50.956;7.002;2024-01-15T13:40:13;1.80;97.20
5960;DHT22;3006;50.956;7.002;2024-01-15T13:42:45;1.60;99.00
5960;DHT22;3006;50.956;7.002;2024-01-15T13:45:14;1.50;99.40
5960;DHT22;3006;50.956;7.002;2024-01-15T13:47:43;1.60;99.90
5960;DHT22;3006;50.956;7.002;2024-01-15T13:50:12;1.70;99.80
5960;DHT22;3006;50.956;7.002;2024-01-15T13:52:41;1.70;99.40
5960;DHT22;3006;50.956;7.002;2024-01-15T13:55:09;1.70;99.90
5960;DHT22;3006;50.956;7.002;2024-01-15T13:57:38;1.80;99.90
5960;DHT22;3006;50.956;7.002;2024-01-15T14:00:08;1.90;99.20
5960;DHT22;3006;50.956;7.002;2024-01-15T14:02:39;1.80;99.30
5960;DHT22;3006;50.956;7.002;2024-01-15T14:05:08;1.80;98.60
5960;DHT22;3006;50.956;7.002;2024-01-15T14:07:36;1.80;98.40
5960;DHT22;3006;50.956;7.002;2024-01-15T14:10:05;1.70;98.50
5960;DHT22;3006;50.956;7.002;2024-01-15T14:12:35;1.70;98.50
5960;DHT22;3006;50.956;7.002;2024-01-15T14:15:06;1.60;99.30
5960;DHT22;3006;50.956;7.002;2024-01-15T14:17:34;1.50;99.90
5960;DHT22;3006;50.956;7.002;2024-01-15T14:20:03;1.50;99.90
5960;DHT22;3006;50.956;7.002;2024-01-15T14:22:33;1.40;99.90
5960;DHT22;3006;50.956;7.002;2024-01-15T14:25:01;1.20;99.90
5960;DHT22;3006;50.956;7.002;2024-01-15T14:27:30;1.30;99.90
5960;DHT22;3006;50.956;7.002;2024-01-15T14:29:59;1.40;99.90
5960;DHT22;3006;50.956;7.002;2024-01-15T14:32:31;1.50;99.90
5960;DHT22;3006;50.956;7.002;2024-01-15T14:34:59;1.50;99.90
5960;DHT22;3006;50.956;7.002;2024-01-15T14:37:29;1.60;99.90
5960;DHT22;3006;50.956;7.002;2024-01-15T14:39:57;1.60;99.90
5960;DHT22;3006;50.956;7.002;2024-01-15T14:42:26;1.60;99.90
5960;DHT22;3006;50.956;7.002;2024-01-15T14:44:54;1.60;99.90
5960;DHT22;3006;50.956;7.002;2024-01-15T14:47:22;1.60;99.90
5960;DHT22;3006;50.956;7.002;2024-01-15T14:49:52;1.70;99.60
5960;DHT22;3006;50.956;7.002;2024-01-15T14:52:21;1.60;99.00
5960;DHT22;3006;50.956;7.002;2024-01-15T14:54:50;1.50;99.60
5960;DHT22;3006;50.956;7.002;2024-01-15T14:57:18;1.60;99.80
5960;DHT22;3006;50.956;7.002;2024-01-15T14:59:46;1.60;99.40
5960;DHT22;3006;50.956;7.002;2024-01-15T15:02:15;1.70;99.10
5960;DHT22;3006;50.956;7.002;2024-01-15T15:04:44;1.70;98.70
5960;DHT22;3006;50.956;7.002;2024-01-15T15:07:17;1.60;98.50
5960;DHT22;3006;50.956;7.002;2024-01-15T15:09:45;1.50;99.10
5960;DHT22;3006;50.956;7.002;2024-01-15T15:12:13;1.50;99.30
5960;DHT22;3006;50.956;7.002;2024-01-15T15:14:42;1.50;99.40
5960;DHT22;3006;50.956;7.002;2024-01-15T15:17:25;1.40;99.80
5960;DHT22;3006;50.956;7.002;2024-01-15T15:19:54;1.40;99.90
5960;DHT22;3006;50.956;7.002;2024-01-15T15:22:24;1.40;99.90
5960;DHT22;3006;50.956;7.002;2024-01-15T15:24:52;1.40;99.80
5960;DHT22;3006;50.956;7.002;2024-01-15T15:27:22;1.40;99.90
5960;DHT22;3006;50.956;7.002;2024-01-15T15:29:50;1.40;99.90
5960;DHT22;3006;50.956;7.002;2024-01-15T15:32:18;1.40;99.70
5960;DHT22;3006;50.956;7.002;2024-01-15T15:34:46;1.40;99.10
5960;DHT22;3006;50.956;7.002;2024-01-15T15:37:15;1.30;99.20
5960;DHT22;3006;50.956;7.002;2024-01-15T15:39:46;1.20;99.80
5960;DHT22;3006;50.956;7.002;2024-01-15T15:42:14;1.20;99.90
5960;DHT22;3006;50.956;7.002;2024-01-15T15:44:42;1.30;99.90
5960;DHT22;3006;50.956;7.002;2024-01-15T15:47:13;1.40;99.70
5960;DHT22;3006;50.956;7.002;2024-01-15T15:49:42;1.40;99.40
5960;DHT22;3006;50.956;7.002;2024-01-15T15:52:11;1.10;99.90
5960;DHT22;3006;50.956;7.002;2024-01-15T15:54:39;0.80;99.90
5960;DHT22;3006;50.956;7.002;2024-01-15T15:57:08;0.80;99.90
5960;DHT22;3006;50.956;7.002;2024-01-15T15:59:37;0.90;99.90
5960;DHT22;3006;50.956;7.002;2024-01-15T16:02:05;0.80;99.90
5960;DHT22;3006;50.956;7.002;2024-01-15T16:04:34;0.80;99.90
5960;DHT22;3006;50.956;7.002;2024-01-15T16:07:03;0.90;99.90
5960;DHT22;3006;50.956;7.002;2024-01-15T16:09:35;0.90;99.90
5960;DHT22;3006;50.956;7.002;2024-01-15T16:12:05;0.90;99.90
5960;DHT22;3006;50.956;7.002;2024-01-15T16:14:35;1.10;99.90
5960;DHT22;3006;50.956;7.002;2024-01-15T16:17:04;1.20;99.90
5960;DHT22;3006;50.956;7.002;2024-01-15T16:19:52;1.20;99.90
5960;DHT22;3006;50.956;7.002;2024-01-15T16:22:40;1.00;99.90
5960;DHT22;3006;50.956;7.002;2024-01-15T16:25:28;1.10;99.70
5960;DHT22;3006;50.956;7.002;2024-01-15T16:27:58;1.00;99.50
5960;DHT22;3006;50.956;7.002;2024-01-15T16:30:28;1.00;99.60
5960;DHT22;3006;50.956;7.002;2024-01-15T16:33:09;1.00;99.40